"WATCHING THE WEATHER TO PROTECT LIFE AND PROPERTY"


THERE ARE CURRENTLY NO WATCHES NOR WARNINGS


Aviation
Satellite (InfraRed)


TNCA 010300Z 08015KT 9999 FEW019 26/21 Q1013 NOSIG
TNCB 010255Z AUTO 07010KT 9999 SCT018/// BKN021/// BKN027/// 26/22 Q1013
TNCC 010301Z 09013KT 9999 -SHRA SCT017TCU 25/21 Q1013 NOSIG
TNCM 010300Z 05008KT 030V110 9999 VCSH SCT016 25/20 Q1018 RMK VCSH E